Time;durP1;ratioP1;P1;durP2;ratioP2;P2;SDS_P1;SDS_P2;PMS_P1;PMS_P2;Temp;Humidity;BMP_temperature;BMP_pressure;BME280_temperature;BME280_humidity;BME280_pressure;Samples;Min_cycle;Max_cycle;Signal;HPM_P1;HPM_P2
2023/03/29 00:01:29;;;;;;;8.45;5.60;;;6.50;99.90;;;;;;5033228;28;20171;-43
2023/03/29 00:03:56;;;;;;;8.90;4.35;;;6.40;99.90;;;;;;5033676;28;20175;-43
2023/03/29 00:06:22;;;;;;;7.88;3.90;;;6.50;99.90;;;;;;5033328;28;20170;-43
2023/03/29 00:08:53;;;;;;;4.25;3.20;;;6.40;99.90;;;;;;5033497;28;20219;-44
2023/03/29 00:11:20;;;;;;;7.68;3.90;;;6.40;99.90;;;;;;5033700;28;20206;-43
2023/03/29 00:13:46;;;;;;;5.35;3.40;;;6.40;99.90;;;;;;5033422;28;20194;-45
2023/03/29 00:16:12;;;;;;;7.03;4.30;;;6.50;99.90;;;;;;5033353;28;20632;-49
2023/03/29 00:18:38;;;;;;;6.80;4.00;;;6.40;99.90;;;;;;5033704;28;20587;-44
2023/03/29 00:21:04;;;;;;;4.97;3.28;;;6.30;99.90;;;;;;5033204;28;20190;-43
2023/03/29 00:23:31;;;;;;;10.68;3.00;;;;;;;;;;5032467;28;20255;-42
2023/03/29 00:25:57;;;;;;;4.97;3.13;;;;;;;;;;5031615;28;20683;-45
2023/03/29 00:28:22;;;;;;;4.55;3.17;;;6.30;99.90;;;;;;5032598;28;20171;-44
2023/03/29 00:30:51;;;;;;;4.07;3.03;;;6.40;99.90;;;;;;5032516;28;20168;-44
2023/03/29 00:33:19;;;;;;;4.55;3.08;;;6.40;99.90;;;;;;5032830;28;20264;-44
2023/03/29 00:35:47;;;;;;;4.05;3.22;;;6.30;99.90;;;;;;5032564;28;20174;-44
2023/03/29 00:38:13;;;;;;;4.55;3.28;;;6.40;99.90;;;;;;5032557;28;20195;-44
2023/03/29 00:40:45;;;;;;;5.85;3.05;;;6.40;99.90;;;;;;5032858;28;20167;-44
2023/03/29 00:43:12;;;;;;;4.22;2.70;;;6.30;99.90;;;;;;5032461;28;20168;-45
2023/03/29 00:45:37;;;;;;;11.27;3.00;;;6.50;99.90;;;;;;5032737;28;20698;-43
2023/03/29 00:48:26;;;;;;;5.13;2.75;;;6.50;99.90;;;;;;5032350;28;20254;-56
2023/03/29 00:51:06;;;;;;;4.93;3.20;;;6.40;99.90;;;;;;5032218;28;20167;-44
2023/03/29 00:53:36;;;;;;;4.47;2.20;;;6.50;99.90;;;;;;5011535;28;20172;-43
2023/03/29 00:56:10;;;;;;;3.97;3.08;;;6.40;99.90;;;;;;5012343;28;20192;-57
2023/03/29 00:58:46;;;;;;;8.40;3.10;;;6.40;99.90;;;;;;5013029;28;20172;-55
2023/03/29 01:01:18;;;;;;;3.05;2.30;;;6.50;99.90;;;;;;5028146;28;20598;-57
2023/03/29 01:03:59;;;;;;;3.40;2.47;;;6.50;99.90;;;;;;5032005;28;20233;-53
2023/03/29 01:06:28;;;;;;;3.40;2.53;;;6.50;99.90;;;;;;5032417;28;20258;-58
2023/03/29 01:08:58;;;;;;;7.80;2.70;;;6.50;99.90;;;;;;5031805;28;20219;-57
2023/03/29 01:11:30;;;;;;;3.53;2.03;;;6.50;99.90;;;;;;5031747;28;20681;-58
2023/03/29 01:14:02;;;;;;;2.53;1.88;;;6.60;99.90;;;;;;5032050;28;20618;-57
2023/03/29 01:16:31;;;;;;;2.40;2.03;;;6.60;99.90;;;;;;5032087;28;20168;-56
2023/03/29 01:18:57;;;;;;;6.00;2.20;;;6.60;99.90;;;;;;5032047;28;20182;-58
2023/03/29 01:21:29;;;;;;;3.97;2.65;;;6.60;99.90;;;;;;5031225;28;20228;-57
2023/03/29 01:24:12;;;;;;;5.15;2.20;;;6.60;99.90;;;;;;5031493;28;20635;-56
2023/03/29 01:26:50;;;;;;;4.68;2.33;;;6.70;99.90;;;;;;5032021;28;20246;-57
2023/03/29 01:29:42;;;;;;;3.63;2.50;;;6.70;99.90;;;;;;5031631;28;20615;-56
2023/03/29 01:32:13;;;;;;;3.08;2.20;;;6.60;99.90;;;;;;5032110;28;20203;-57
2023/03/29 01:35:01;;;;;;;3.22;2.47;;;6.70;99.90;;;;;;5031676;28;20234;-53
2023/03/29 01:37:33;;;;;;;3.30;2.42;;;6.70;99.90;;;;;;5031119;28;20175;-57
2023/03/29 01:39:59;;;;;;;6.45;2.70;;;6.70;99.90;;;;;;5031265;28;20230;-57
2023/03/29 01:42:53;;;;;;;2.85;2.10;;;6.70;99.90;;;;;;5031311;28;20174;-57
2023/03/29 01:45:35;;;;;;;4.28;2.22;;;6.70;99.90;;;;;;5031390;28;20237;-57
2023/03/29 01:48:30;;;;;;;2.35;2.10;;;6.70;99.90;;;;;;5031596;28;20167;-57
2023/03/29 01:51:07;;;;;;;2.33;1.80;;;6.70;99.90;;;;;;5030582;28;20562;-57
2023/03/29 01:53:42;;;;;;;3.65;2.47;;;6.80;99.90;;;;;;5031367;28;20225;-56
2023/03/29 01:56:16;;;;;;;4.05;2.10;;;6.80;99.90;;;;;;5031480;28;20178;-57
2023/03/29 01:58:52;;;;;;;5.30;2.70;;;6.80;99.90;;;;;;5031178;28;20178;-58
2023/03/29 02:01:24;;;;;;;7.07;2.67;;;6.80;99.90;;;;;;5031463;28;20611;-56
2023/03/29 02:03:54;;;;;;;2.42;1.90;;;6.90;99.90;;;;;;5031021;28;20193;-57
2023/03/29 02:06:22;;;;;;;3.85;2.22;;;6.90;99.90;;;;;;5031239;28;20583;-57
2023/03/29 02:08:50;;;;;;;3.33;2.40;;;6.90;99.90;;;;;;5030915;28;20563;-55
2023/03/29 02:11:16;;;;;;;6.18;2.67;;;6.90;99.90;;;;;;5030898;28;20225;-56
2023/03/29 02:13:41;;;;;;;3.67;2.47;;;6.90;99.90;;;;;;5030871;28;20210;-56
2023/03/29 02:16:12;;;;;;;4.38;2.47;;;6.90;99.90;;;;;;5031659;28;20190;-57
2023/03/29 02:18:44;;;;;;;3.13;2.15;;;6.90;99.90;;;;;;5031326;28;20535;-44
2023/03/29 02:21:20;;;;;;;4.75;2.30;;;6.90;99.90;;;;;;5030940;28;20213;-53
2023/03/29 02:23:47;;;;;;;5.40;2.42;;;6.90;99.90;;;;;;5030918;28;20175;-55
2023/03/29 02:26:14;;;;;;;4.78;2.33;;;6.80;99.90;;;;;;5031146;28;20262;-54
2023/03/29 02:28:40;;;;;;;4.47;2.30;;;6.80;99.90;;;;;;5030876;28;20228;-54
2023/03/29 02:31:35;;;;;;;3.70;2.40;;;6.80;99.90;;;;;;5031172;28;20175;-57
2023/03/29 02:34:18;;;;;;;4.75;2.47;;;6.90;99.90;;;;;;5030853;28;20215;-57
2023/03/29 02:36:53;;;;;;;3.47;2.60;;;6.90;99.90;;;;;;5031018;28;20168;-58
2023/03/29 02:39:20;;;;;;;7.10;2.50;;;6.90;99.90;;;;;;5030984;28;20174;-53
2023/03/29 02:41:49;;;;;;;5.13;2.50;;;7.00;99.90;;;;;;5031071;28;20167;-58
2023/03/29 02:44:19;;;;;;;6.35;2.60;;;7.00;99.90;;;;;;5030968;28;20176;-57
2023/03/29 02:46:48;;;;;;;3.70;2.33;;;7.00;99.90;;;;;;5031076;28;20171;-57
2023/03/29 02:49:14;;;;;;;4.38;2.10;;;6.90;99.90;;;;;;5031957;28;20163;-58
2023/03/29 02:51:40;;;;;;;4.40;2.83;;;;;;;;;;5034069;28;20261;-57
2023/03/29 02:54:12;;;;;;;4.78;2.20;;;7.00;99.90;;;;;;5035078;28;20254;-58
2023/03/29 02:56:46;;;;;;;6.72;2.17;;;7.00;99.90;;;;;;5034805;28;20160;-57
2023/03/29 02:59:12;;;;;;;3.08;2.13;;;;;;;;;;5034495;28;20226;-57
2023/03/29 03:01:41;;;;;;;5.70;2.88;;;7.10;99.90;;;;;;5034777;28;20175;-51
2023/03/29 03:04:08;;;;;;;4.43;2.25;;;7.10;99.90;;;;;;5034875;28;20530;-49
2023/03/29 03:06:35;;;;;;;4.90;2.30;;;;;;;;;;5034968;28;20274;-46
2023/03/29 03:09:01;;;;;;;4.75;2.60;;;7.10;99.90;;;;;;5034137;28;20289;-56
2023/03/29 03:11:26;;;;;;;6.22;2.40;;;7.20;99.90;;;;;;5034174;28;20236;-45
2023/03/29 03:13:52;;;;;;;3.60;2.20;;;;;;;;;;5034101;28;20172;-44
2023/03/29 03:16:20;;;;;;;5.00;2.35;;;7.30;99.90;;;;;;5034056;28;20171;-48
2023/03/29 03:18:48;;;;;;;5.68;2.42;;;7.20;99.90;;;;;;5034301;28;20188;-48
2023/03/29 03:21:13;;;;;;;2.97;2.20;;;7.30;99.90;;;;;;5034122;28;20644;-54
2023/03/29 03:23:39;;;;;;;3.15;2.30;;;;;;;;;;5033634;28;20251;-52
2023/03/29 03:26:05;;;;;;;2.70;1.98;;;7.40;99.90;;;;;;5034052;28;20222;-50
2023/03/29 03:28:31;;;;;;;3.28;2.47;;;7.40;99.90;;;;;;5034120;28;20218;-49
2023/03/29 03:30:56;;;;;;;9.65;5.88;;;7.40;99.90;;;;;;5033750;28;20526;-48
2023/03/29 03:33:23;;;;;;;5.70;2.47;;;;;;;;;;5033865;28;20175;-48
2023/03/29 03:35:49;;;;;;;5.88;2.70;;;7.40;99.90;;;;;;5033824;28;20163;-49
2023/03/29 03:38:15;;;;;;;7.45;3.00;;;7.40;99.90;;;;;;5033727;28;20221;-58
2023/03/29 03:40:41;;;;;;;5.78;3.15;;;;;;;;;;5033832;28;20175;-57
2023/03/29 03:43:07;;;;;;;6.75;2.63;;;7.50;99.90;;;;;;5034063;28;20293;-57
2023/03/29 03:45:33;;;;;;;6.22;2.97;;;7.60;99.90;;;;;;5033520;28;20626;-56
2023/03/29 03:47:58;;;;;;;17.77;7.18;;;7.40;99.90;;;;;;5033558;28;20258;-50
2023/03/29 03:50:24;;;;;;;5.38;3.55;;;7.60;99.90;;;;;;5033183;28;20294;-56
2023/03/29 03:52:50;;;;;;;12.40;2.80;;;;;;;;;;5033415;28;20256;-57
2023/03/29 03:55:16;;;;;;;30.92;13.18;;;7.50;99.90;;;;;;5033543;28;20213;-58
2023/03/29 03:57:42;;;;;;;23.88;12.73;;;7.60;99.90;;;;;;5033623;28;20179;-58
2023/03/29 04:00:17;;;;;;;14.77;8.40;;;7.60;99.90;;;;;;5033260;28;20210;-47
2023/03/29 04:02:44;;;;;;;18.98;10.02;;;7.60;99.90;;;;;;5033464;28;20262;-57
2023/03/29 04:05:10;;;;;;;9.65;6.00;;;7.60;99.90;;;;;;5033449;28;20167;-57
2023/03/29 04:07:35;;;;;;;8.07;3.90;;;7.60;99.90;;;;;;5032114;28;20308;-58
2023/03/29 04:10:01;;;;;;;10.18;4.63;;;7.60;99.90;;;;;;5032975;28;20251;-57
2023/03/29 04:12:26;;;;;;;13.38;5.57;;;7.60;99.90;;;;;;5032978;28;20199;-54
2023/03/29 04:14:52;;;;;;;12.27;5.80;;;7.60;99.90;;;;;;5033035;28;20259;-57
2023/03/29 04:17:18;;;;;;;8.25;4.60;;;7.50;99.90;;;;;;5032981;28;20222;-57
2023/03/29 04:19:43;;;;;;;5.85;3.03;;;7.50;99.90;;;;;;5032814;28;20176;-58
2023/03/29 04:22:09;;;;;;;3.72;2.55;;;7.50;99.90;;;;;;5032849;28;20167;-57
2023/03/29 04:24:35;;;;;;;7.38;4.18;;;;;;;;;;5033355;28;20635;-58
2023/03/29 04:27:01;;;;;;;11.02;6.07;;;7.40;99.90;;;;;;5032827;28;20159;-58
2023/03/29 04:29:27;;;;;;;9.85;4.55;;;7.40;99.90;;;;;;5032421;28;20705;-57
2023/03/29 04:31:53;;;;;;;8.82;3.90;;;7.30;99.90;;;;;;5032544;28;20235;-56
2023/03/29 04:34:19;;;;;;;4.93;3.70;;;7.40;99.90;;;;;;5032582;28;20635;-58
2023/03/29 04:36:44;;;;;;;7.50;4.30;;;7.30;99.90;;;;;;5032609;28;20173;-58
2023/03/29 04:39:10;;;;;;;6.50;4.20;;;7.30;99.90;;;;;;5032585;28;20206;-58
2023/03/29 04:41:35;;;;;;;9.70;3.95;;;7.30;99.90;;;;;;5033011;28;20170;-57
2023/03/29 04:44:01;;;;;;;8.98;4.20;;;;;;;;;;5032334;28;20650;-58
2023/03/29 04:46:27;;;;;;;8.73;3.22;;;;;;;;;;5032475;28;20168;-58
2023/03/29 04:48:53;;;;;;;5.05;3.35;;;7.20;99.90;;;;;;5032682;28;20201;-57
2023/03/29 04:51:21;;;;;;;6.40;4.05;;;7.20;99.90;;;;;;5032183;28;20191;-57
2023/03/29 04:53:48;;;;;;;10.48;5.00;;;7.30;99.90;;;;;;5031908;28;20270;-57
2023/03/29 04:56:15;;;;;;;11.30;5.70;;;7.30;99.90;;;;;;5032348;28;20473;-57
2023/03/29 04:58:41;;;;;;;6.03;4.13;;;7.20;99.90;;;;;;5032117;28;20529;-55
2023/03/29 05:01:07;;;;;;;11.98;5.18;;;;;;;;;;5032434;28;20289;-57
2023/03/29 05:03:34;;;;;;;13.40;6.57;;;7.30;99.90;;;;;;5032411;28;20187;-57
2023/03/29 05:06:11;;;;;;;8.98;4.20;;;7.30;99.90;;;;;;5032442;28;20175;-57
2023/03/29 05:08:37;;;;;;;17.70;8.48;;;7.30;99.90;;;;;;5032345;28;20226;-58
2023/03/29 05:11:05;;;;;;;10.15;4.70;;;7.30;99.90;;;;;;5032088;28;20176;-48
2023/03/29 05:13:31;;;;;;;5.32;3.42;;;;;;;;;;5031888;28;20175;-46
2023/03/29 05:15:59;;;;;;;6.85;4.50;;;7.30;99.90;;;;;;5031827;28;20241;-49
2023/03/29 05:18:25;;;;;;;7.32;4.38;;;;;;;;;;5032064;28;20199;-50
2023/03/29 05:20:51;;;;;;;9.35;4.43;;;7.20;99.90;;;;;;5031281;28;20222;-47
2023/03/29 05:23:18;;;;;;;8.68;4.50;;;;;;;;;;5032033;28;20172;-46
2023/03/29 05:25:43;;;;;;;8.48;3.92;;;7.20;99.90;;;;;;5031637;28;20171;-44
2023/03/29 05:28:09;;;;;;;13.10;5.57;;;7.30;99.90;;;;;;5031579;28;20639;-43
2023/03/29 05:30:34;;;;;;;9.27;4.60;;;7.30;99.90;;;;;;5030708;28;20175;-50
2023/03/29 05:33:04;;;;;;;10.85;5.20;;;7.20;99.90;;;;;;5031601;28;20242;-44
2023/03/29 05:35:30;;;;;;;22.00;8.35;;;;;;;;;;5031634;28;20179;-48
2023/03/29 05:37:56;;;;;;;15.50;6.50;;;7.40;99.90;;;;;;5031209;28;20175;-43
2023/03/29 05:40:24;;;;;;;15.40;7.78;;;7.30;99.90;;;;;;5031844;28;20163;-43
2023/03/29 05:42:51;;;;;;;13.38;5.63;;;7.40;99.90;;;;;;5031374;28;20213;-44
2023/03/29 05:45:16;;;;;;;11.43;4.72;;;7.40;99.90;;;;;;5031847;28;20163;-45
2023/03/29 05:47:42;;;;;;;17.83;7.40;;;7.40;99.90;;;;;;5030971;28;20190;-43
2023/03/29 05:50:09;;;;;;;12.85;6.57;;;7.40;99.90;;;;;;5031299;28;20163;-46
2023/03/29 05:52:35;;;;;;;12.43;5.80;;;7.50;99.90;;;;;;5031503;28;20301;-43
2023/03/29 05:55:03;;;;;;;8.15;5.03;;;7.40;99.90;;;;;;5031759;28;20171;-43
2023/03/29 05:57:28;;;;;;;9.05;4.20;;;7.60;99.90;;;;;;5030860;28;20176;-46
2023/03/29 05:59:55;;;;;;;7.97;4.07;;;7.60;99.90;;;;;;5031157;28;20183;-43
2023/03/29 06:02:21;;;;;;;9.90;3.95;;;7.70;99.90;;;;;;5030837;28;20186;-45
2023/03/29 06:04:46;;;;;;;6.47;4.05;;;7.60;99.90;;;;;;5031018;28;20535;-45
2023/03/29 06:07:13;;;;;;;11.65;5.07;;;7.70;99.90;;;;;;5030617;28;20175;-48
2023/03/29 06:09:39;;;;;;;9.00;4.15;;;7.70;99.90;;;;;;5031176;28;20221;-44
2023/03/29 06:12:05;;;;;;;11.75;5.50;;;7.70;99.90;;;;;;5031728;28;20210;-46
2023/03/29 06:14:31;;;;;;;10.02;4.03;;;7.80;99.90;;;;;;5030923;28;20186;-43
2023/03/29 06:16:57;;;;;;;10.82;5.00;;;;;;;;;;5031115;28;20202;-48
2023/03/29 06:19:23;;;;;;;11.82;5.60;;;7.80;99.90;;;;;;5030853;28;20170;-46
2023/03/29 06:21:51;;;;;;;13.43;5.78;;;7.80;99.90;;;;;;5030675;28;20179;-43
2023/03/29 06:24:16;;;;;;;31.80;12.85;;;7.80;99.90;;;;;;5033525;28;20159;-44
2023/03/29 06:26:42;;;;;;;20.27;7.43;;;7.80;99.90;;;;;;5034917;28;20216;-45
2023/03/29 06:29:09;;;;;;;21.58;8.48;;;;;;;;;;5035159;28;20565;-43
2023/03/29 06:31:35;;;;;;;15.85;6.90;;;7.90;99.90;;;;;;5035097;28;20197;-50
2023/03/29 06:34:01;;;;;;;9.15;4.38;;;7.90;99.90;;;;;;5035413;28;20187;-43
2023/03/29 06:36:27;;;;;;;8.27;4.68;;;7.90;99.90;;;;;;5035253;28;20662;-48
2023/03/29 06:38:52;;;;;;;10.38;4.63;;;8.00;99.90;;;;;;5034018;28;20201;-44
2023/03/29 06:41:18;;;;;;;6.40;4.05;;;8.10;99.90;;;;;;5035097;28;20179;-45
2023/03/29 06:43:44;;;;;;;12.55;5.30;;;8.10;99.90;;;;;;5035278;28;20182;-47
2023/03/29 06:46:10;;;;;;;6.70;4.82;;;8.10;99.90;;;;;;5034769;28;20726;-44
2023/03/29 06:48:37;;;;;;;14.13;5.18;;;8.10;99.90;;;;;;5035281;28;20530;-44
2023/03/29 06:51:04;;;;;;;7.18;5.35;;;8.20;99.90;;;;;;5034980;28;20217;-44
2023/03/29 06:53:31;;;;;;;10.43;4.28;;;;;;;;;;5034905;28;20179;-47
2023/03/29 06:55:56;;;;;;;6.80;4.53;;;8.30;99.90;;;;;;5034661;28;20218;-47
2023/03/29 06:58:22;;;;;;;6.25;3.95;;;8.30;99.90;;;;;;5034904;28;20175;-50
2023/03/29 07:00:47;;;;;;;5.50;3.60;;;8.40;99.90;;;;;;5034253;28;20249;-45
2023/03/29 07:03:19;;;;;;;6.10;3.72;;;8.40;99.90;;;;;;5034023;28;20214;-43
2023/03/29 07:05:46;;;;;;;9.05;4.55;;;8.40;99.90;;;;;;5034442;28;20233;-43
2023/03/29 07:08:14;;;;;;;7.60;3.90;;;8.50;99.90;;;;;;5033896;28;20671;-45
2023/03/29 07:10:43;;;;;;;6.85;4.22;;;8.50;99.90;;;;;;5034258;28;20606;-43
2023/03/29 07:13:13;;;;;;;6.82;4.10;;;8.50;99.90;;;;;;5033947;28;20218;-43
2023/03/29 07:15:42;;;;;;;9.18;4.47;;;8.50;99.90;;;;;;5034292;28;20572;-47
2023/03/29 07:18:08;;;;;;;6.10;3.35;;;8.50;99.90;;;;;;5035076;28;20176;-48
2023/03/29 07:20:34;;;;;;;6.55;3.38;;;8.50;99.90;;;;;;5035002;28;20175;-44
2023/03/29 07:23:00;;;;;;;6.13;3.92;;;8.50;99.90;;;;;;5034405;28;20175;-50
2023/03/29 07:25:26;;;;;;;6.57;3.28;;;8.50;99.90;;;;;;5034438;28;20509;-44
2023/03/29 07:27:52;;;;;;;6.05;3.80;;;8.60;99.90;;;;;;5034601;28;20175;-44
2023/03/29 07:30:21;;;;;;;7.97;3.85;;;8.70;99.90;;;;;;5034151;28;20643;-43
2023/03/29 07:32:49;;;;;;;8.63;3.55;;;8.80;99.90;;;;;;5034521;28;20219;-44
2023/03/29 07:35:16;;;;;;;8.50;4.10;;;8.80;99.90;;;;;;5033794;28;20167;-46
2023/03/29 07:37:43;;;;;;;7.93;3.10;;;8.90;99.90;;;;;;5034124;28;20194;-45
2023/03/29 07:40:14;;;;;;;5.55;4.05;;;9.10;99.90;;;;;;5034088;28;20702;-43
2023/03/29 07:42:47;;;;;;;6.30;3.45;;;9.20;99.90;;;;;;5034194;28;20176;-44
2023/03/29 07:45:15;;;;;;;9.40;3.90;;;9.30;99.90;;;;;;5034126;28;20162;-44
2023/03/29 07:47:41;;;;;;;7.10;3.97;;;9.40;99.90;;;;;;5034261;28;20175;-45
2023/03/29 07:50:08;;;;;;;6.70;4.15;;;9.50;99.90;;;;;;5034311;28;20173;-45
2023/03/29 07:52:35;;;;;;;9.45;3.60;;;9.70;99.90;;;;;;5034124;28;20695;-49
2023/03/29 07:55:01;;;;;;;8.82;5.50;;;;;;;;;;5033944;28;20531;-48
2023/03/29 07:57:26;;;;;;;13.40;5.68;;;9.80;99.90;;;;;;5033831;28;20167;-44
2023/03/29 07:59:53;;;;;;;10.10;4.53;;;9.80;99.90;;;;;;5033705;28;20218;-45
2023/03/29 08:02:19;;;;;;;10.57;4.55;;;9.90;99.90;;;;;;5033743;28;20175;-48
2023/03/29 08:04:45;;;;;;;7.05;4.88;;;10.00;99.90;;;;;;5033685;28;20167;-45
2023/03/29 08:07:12;;;;;;;7.40;4.20;;;10.20;99.90;;;;;;5033896;28;20204;-44
2023/03/29 08:09:38;;;;;;;7.88;3.58;;;;;;;;;;5034024;28;20211;-45
2023/03/29 08:12:04;;;;;;;5.70;3.45;;;10.20;99.90;;;;;;5033915;28;20744;-46
2023/03/29 08:14:30;;;;;;;6.43;3.45;;;10.20;99.90;;;;;;5033534;28;20199;-43
2023/03/29 08:16:56;;;;;;;5.57;3.20;;;10.20;99.90;;;;;;5033534;28;20167;-43
2023/03/29 08:19:21;;;;;;;7.75;3.30;;;10.30;99.90;;;;;;5033444;28;20160;-44
2023/03/29 08:21:47;;;;;;;8.48;3.50;;;10.40;99.90;;;;;;5033384;28;20210;-43
2023/03/29 08:24:13;;;;;;;7.13;3.65;;;;;;;;;;5033563;28;20179;-43
2023/03/29 08:26:39;;;;;;;8.82;4.03;;;10.30;99.90;;;;;;5033337;28;20167;-46
2023/03/29 08:29:07;;;;;;;6.28;4.00;;;10.40;99.90;;;;;;5033536;28;20178;-50
2023/03/29 08:31:32;;;;;;;8.25;3.60;;;10.30;99.90;;;;;;5033018;28;20210;-43
2023/03/29 08:33:58;;;;;;;8.85;4.00;;;10.30;99.90;;;;;;5033141;28;20201;-42
2023/03/29 08:36:23;;;;;;;12.45;4.57;;;10.30;99.90;;;;;;5032912;28;20238;-45
2023/03/29 08:38:50;;;;;;;8.48;4.30;;;10.40;99.90;;;;;;5032738;28;20257;-45
2023/03/29 08:41:30;;;;;;;9.18;4.93;;;10.40;99.90;;;;;;5032948;28;20175;-46
2023/03/29 08:44:11;;;;;;;5.22;3.92;;;10.40;99.90;;;;;;5032981;28;20167;-44
2023/03/29 08:46:36;;;;;;;9.27;4.07;;;10.50;99.90;;;;;;5032448;28;20172;-44
2023/03/29 08:49:05;;;;;;;6.78;3.95;;;10.60;99.90;;;;;;5032564;28;20176;-42
2023/03/29 08:51:48;;;;;;;11.27;3.55;;;10.60;99.90;;;;;;5032782;28;20608;-44
2023/03/29 08:54:19;;;;;;;7.03;2.78;;;10.60;99.90;;;;;;5032396;28;20179;-45
2023/03/29 08:56:46;;;;;;;7.53;3.72;;;10.70;99.90;;;;;;5032170;28;20221;-56
2023/03/29 08:59:19;;;;;;;4.93;3.75;;;10.80;99.90;;;;;;5032137;28;20590;-54
2023/03/29 09:01:47;;;;;;;9.93;3.42;;;10.70;99.90;;;;;;5032289;28;20221;-57
2023/03/29 09:04:17;;;;;;;4.97;3.33;;;10.80;99.90;;;;;;5032195;28;20563;-51
2023/03/29 09:06:43;;;;;;;8.57;3.60;;;;;;;;;;5031967;28;20274;-58
2023/03/29 09:09:22;;;;;;;7.47;3.35;;;10.90;99.90;;;;;;5005015;28;20564;-54
2023/03/29 09:12:00;;;;;;;6.53;3.35;;;11.00;99.90;;;;;;5005092;28;20223;-55
2023/03/29 09:14:48;;;;;;;6.78;3.47;;;11.00;99.90;;;;;;5005625;28;20175;-55
2023/03/29 09:17:25;;;;;;;4.60;3.55;;;11.10;99.90;;;;;;5005301;28;20168;-55
2023/03/29 09:20:13;;;;;;;4.82;2.70;;;11.20;99.90;;;;;;5005183;28;20160;-56
2023/03/29 09:23:24;;;;;;;3.53;2.90;;;11.30;99.90;;;;;;5005222;28;20265;-51
2023/03/29 09:26:04;;;;;;;4.47;3.17;;;11.40;99.90;;;;;;5023651;28;20180;-54
2023/03/29 09:28:38;;;;;;;8.85;3.55;;;11.40;99.90;;;;;;5004998;28;20207;-52
2023/03/29 09:31:14;;;;;;;6.57;3.42;;;11.50;99.90;;;;;;5005505;28;20168;-49
2023/03/29 09:33:45;;;;;;;4.75;3.55;;;11.60;99.90;;;;;;5005342;28;20258;-55
2023/03/29 09:36:16;;;;;;;7.75;3.30;;;11.60;99.90;;;;;;5005263;28;20183;-41
2023/03/29 09:38:46;;;;;;;7.45;3.05;;;11.70;99.90;;;;;;5001216;28;20645;-41
2023/03/29 09:41:45;;;;;;;5.78;3.97;;;11.70;99.90;;;;;;4985736;28;20185;-41
2023/03/29 09:44:21;;;;;;;6.30;5.47;;;11.70;99.90;;;;;;4985325;28;20252;-43
2023/03/29 09:47:22;;;;;;;6.32;3.20;;;11.70;99.90;;;;;;4984867;28;20176;-44
2023/03/29 09:49:51;;;;;;;6.97;3.13;;;11.70;99.90;;;;;;4972316;28;20251;-42
2023/03/29 09:52:18;;;;;;;9.02;3.70;;;11.80;99.90;;;;;;4985257;28;20175;-41
2023/03/29 09:54:44;;;;;;;8.32;4.22;;;11.80;99.90;;;;;;4985414;28;20580;-41
2023/03/29 09:57:15;;;;;;;16.73;7.75;;;11.90;99.90;;;;;;4985214;28;20251;-42
2023/03/29 09:59:43;;;;;;;7.10;4.13;;;11.80;99.90;;;;;;4985209;28;20214;-41
2023/03/29 10:02:12;;;;;;;14.52;5.90;;;11.90;99.90;;;;;;4985091;28;20215;-42
2023/03/29 10:04:38;;;;;;;12.73;6.00;;;;;;;;;;4985149;28;20677;-41
2023/03/29 10:07:07;;;;;;;5.63;3.92;;;12.20;99.90;;;;;;4985397;28;20536;-41
2023/03/29 10:09:33;;;;;;;7.55;3.75;;;12.20;99.90;;;;;;4985380;28;20219;-41
2023/03/29 10:12:04;;;;;;;4.97;2.70;;;12.30;99.90;;;;;;4985116;28;20229;-41
2023/03/29 10:14:37;;;;;;;6.03;2.60;;;12.40;99.90;;;;;;4984971;28;20177;-41
2023/03/29 10:17:37;;;;;;;5.55;3.25;;;12.30;99.90;;;;;;4984910;28;20180;-41
2023/03/29 10:20:04;;;;;;;6.45;2.58;;;12.30;99.90;;;;;;4977253;28;20193;-42
2023/03/29 10:22:36;;;;;;;5.57;2.95;;;12.50;99.90;;;;;;4971621;28;20181;-43
2023/03/29 10:25:03;;;;;;;10.48;2.92;;;12.70;99.90;;;;;;4972117;28;20204;-42
2023/03/29 10:27:33;;;;;;;4.65;2.80;;;12.90;99.90;;;;;;4971910;28;20206;-42
2023/03/29 10:30:07;;;;;;;6.68;2.65;;;12.90;99.90;;;;;;4972178;28;20235;-43
2023/03/29 10:32:34;;;;;;;7.07;2.92;;;13.10;99.90;;;;;;4972087;28;20165;-42
2023/03/29 10:35:12;;;;;;;6.95;2.65;;;13.20;99.90;;;;;;4971771;28;20181;-43
2023/03/29 10:37:50;;;;;;;8.10;3.47;;;13.40;99.90;;;;;;4971483;28;20169;-43
2023/03/29 10:40:47;;;;;;;4.95;3.30;;;13.50;99.90;;;;;;4971277;28;20231;-41
2023/03/29 10:43:23;;;;;;;6.82;3.25;;;13.50;99.90;;;;;;4979564;28;20231;-43
2023/03/29 10:45:56;;;;;;;8.52;3.40;;;13.60;99.90;;;;;;4971688;28;20590;-42
2023/03/29 10:48:29;;;;;;;6.70;3.15;;;13.70;99.90;;;;;;4971095;28;20217;-42
2023/03/29 10:50:59;;;;;;;6.10;2.58;;;13.60;99.90;;;;;;4971265;28;20178;-41
2023/03/29 10:53:27;;;;;;;5.13;2.85;;;13.60;99.90;;;;;;4971538;28;20179;-42
2023/03/29 10:56:06;;;;;;;12.50;3.75;;;13.60;99.90;;;;;;4971323;28;20223;-45
2023/03/29 10:58:44;;;;;;;4.97;3.25;;;13.70;99.90;;;;;;4971548;28;20173;-41
2023/03/29 11:01:19;;;;;;;6.22;2.92;;;13.70;99.90;;;;;;4971265;28;20688;-41
2023/03/29 11:04:09;;;;;;;5.90;3.15;;;13.70;99.90;;;;;;4971605;28;20177;-42
2023/03/29 11:06:56;;;;;;;7.32;3.03;;;13.50;99.90;;;;;;4971885;28;20256;-42
2023/03/29 11:09:51;;;;;;;9.15;3.90;;;13.60;99.90;;;;;;4981649;28;20188;-41
2023/03/29 11:12:36;;;;;;;7.38;3.85;;;13.50;99.90;;;;;;4990518;28;20322;-43
2023/03/29 11:15:32;;;;;;;8.82;4.28;;;13.50;99.90;;;;;;4990819;28;20193;-41
2023/03/29 11:18:26;;;;;;;8.10;3.70;;;13.70;99.90;;;;;;4990097;28;20522;-41
2023/03/29 11:21:07;;;;;;;6.18;3.95;;;14.10;99.90;;;;;;4991108;28;20169;-41
2023/03/29 11:24:06;;;;;;;6.22;3.20;;;14.20;99.90;;;;;;4990639;28;20168;-42
2023/03/29 11:26:57;;;;;;;5.80;3.58;;;14.40;99.90;;;;;;4990755;28;20247;-42
2023/03/29 11:29:32;;;;;;;5.47;3.20;;;14.40;99.90;;;;;;5010689;28;20272;-43
2023/03/29 11:32:14;;;;;;;8.35;4.00;;;14.50;99.90;;;;;;4989093;28;20164;-43
2023/03/29 11:35:11;;;;;;;6.40;3.08;;;14.50;99.90;;;;;;4990273;28;20171;-48
2023/03/29 11:37:45;;;;;;;9.63;3.70;;;14.70;99.90;;;;;;4990612;28;20586;-55
2023/03/29 11:40:40;;;;;;;5.57;2.80;;;14.80;99.90;;;;;;4972457;28;20176;-55
2023/03/29 11:43:15;;;;;;;5.97;3.58;;;15.00;99.90;;;;;;4971265;28;20177;-54
2023/03/29 11:45:47;;;;;;;7.25;2.80;;;15.00;99.90;;;;;;4970647;28;20651;-55
2023/03/29 11:48:22;;;;;;;6.15;3.20;;;14.80;99.90;;;;;;4970382;28;20201;-55
2023/03/29 11:51:02;;;;;;;4.50;2.17;;;14.60;99.90;;;;;;4970523;28;20193;-58
2023/03/29 11:53:35;;;;;;;6.38;2.40;;;14.50;99.90;;;;;;4970595;28;20216;-55
2023/03/29 11:56:07;;;;;;;3.42;2.20;;;14.50;99.90;;;;;;4970565;28;20629;-58
2023/03/29 11:58:41;;;;;;;3.50;2.47;;;14.50;99.90;;;;;;4970791;28;20239;-57
2023/03/29 12:01:15;;;;;;;5.20;2.67;;;14.70;99.90;;;;;;4970665;28;20179;-49
2023/03/29 12:03:55;;;;;;;6.80;3.05;;;14.60;99.90;;;;;;4970455;28;20189;-58
2023/03/29 12:06:40;;;;;;;4.70;2.55;;;14.50;99.90;;;;;;4970402;28;20277;-58
2023/03/29 12:09:22;;;;;;;8.65;2.78;;;14.60;99.90;;;;;;4980735;28;20286;-58
2023/03/29 12:12:02;;;;;;;4.75;2.20;;;14.50;99.90;;;;;;4989647;28;20164;-58
2023/03/29 12:14:44;;;;;;;6.40;1.98;;;14.60;99.90;;;;;;4989682;28;20172;-58
2023/03/29 12:17:15;;;;;;;4.63;2.45;;;14.70;99.90;;;;;;4989108;28;20173;-49
2023/03/29 12:20:20;;;;;;;8.13;2.90;;;14.70;99.90;;;;;;4989747;28;20198;-53
2023/03/29 12:22:47;;;;;;;8.15;2.80;;;14.80;99.90;;;;;;4991142;28;20199;-55
2023/03/29 12:25:17;;;;;;;4.07;2.15;;;15.00;99.90;;;;;;4989403;28;20541;-55
2023/03/29 12:28:09;;;;;;;4.30;2.35;;;15.10;99.90;;;;;;4989227;28;20664;-54
2023/03/29 12:30:46;;;;;;;3.72;2.40;;;15.20;99.90;;;;;;4989820;28;20230;-56
2023/03/29 12:33:41;;;;;;;5.68;2.65;;;15.40;99.90;;;;;;4989084;28;20172;-55
2023/03/29 12:36:37;;;;;;;6.22;2.58;;;15.30;99.90;;;;;;4989611;28;20169;-41
2023/03/29 12:39:03;;;;;;;3.35;2.08;;;15.40;99.90;;;;;;4979335;28;20205;-42
2023/03/29 12:41:36;;;;;;;7.18;2.97;;;15.50;99.90;;;;;;4968675;28;20258;-54
2023/03/29 12:44:03;;;;;;;8.68;2.83;;;15.50;99.90;;;;;;4969629;28;20223;-55
2023/03/29 12:46:32;;;;;;;7.80;2.92;;;15.60;99.90;;;;;;4969665;28;20177;-55
2023/03/29 12:49:10;;;;;;;5.90;2.38;;;15.50;99.90;;;;;;4969629;28;20608;-55
2023/03/29 12:51:39;;;;;;;6.82;2.53;;;15.50;99.90;;;;;;4970036;28;20161;-55
2023/03/29 12:54:13;;;;;;;7.30;2.92;;;15.70;99.90;;;;;;4970316;28;20223;-49
2023/03/29 12:56:53;;;;;;;5.05;2.83;;;15.80;99.90;;;;;;4969574;28;20227;-56
2023/03/29 12:59:37;;;;;;;8.90;3.20;;;15.90;99.90;;;;;;4969897;28;20173;-58
2023/03/29 13:02:16;;;;;;;6.90;2.90;;;16.00;99.90;;;;;;4970094;28;20177;-58
2023/03/29 13:04:42;;;;;;;5.40;2.58;;;15.80;99.90;;;;;;4969719;28;20169;-53
2023/03/29 13:07:25;;;;;;;6.82;3.22;;;15.70;99.90;;;;;;4969248;28;20267;-49
2023/03/29 13:10:10;;;;;;;8.73;3.00;;;15.70;99.90;;;;;;4985425;28;20179;-54
2023/03/29 13:12:42;;;;;;;8.48;3.00;;;15.50;99.90;;;;;;4989330;28;20208;-58
2023/03/29 13:15:13;;;;;;;12.90;3.47;;;15.40;99.90;;;;;;4989015;28;20243;-58
2023/03/29 13:18:05;;;;;;;2.72;1.67;;;15.40;99.90;;;;;;4987235;28;20180;-56
2023/03/29 13:20:44;;;;;;;3.38;1.63;;;15.60;99.90;;;;;;4988967;28;20317;-58
2023/03/29 13:23:10;;;;;;;2.00;1.50;;;;;;;;;;4989059;28;20168;-56